createdAt,value
2023-03-26T00:01:33.957Z,101336.34
2023-03-26T00:04:01.389Z,101344.00
2023-03-26T00:06:36.870Z,101338.06
2023-03-26T00:09:05.799Z,101337.97
2023-03-26T00:11:33.192Z,101332.69
2023-03-26T00:14:00.227Z,101338.16
2023-03-26T00:16:30.367Z,101334.34
2023-03-26T00:18:58.327Z,101333.81
2023-03-26T00:21:28.450Z,101331.91
2023-03-26T00:23:58.693Z,101327.63
2023-03-26T00:26:31.349Z,101341.38
2023-03-26T00:29:00.932Z,101324.00
2023-03-26T00:31:28.054Z,101326.41
2023-03-26T00:33:55.951Z,101329.88
2023-03-26T00:36:25.820Z,101324.19
2023-03-26T00:38:54.205Z,101316.59
2023-03-26T00:41:31.172Z,101307.59
2023-03-26T00:44:00.227Z,101294.03
2023-03-26T00:46:29.968Z,101284.63
2023-03-26T00:48:59.064Z,101284.09
2023-03-26T00:51:28.254Z,101275.09
2023-03-26T00:53:56.462Z,101284.47
2023-03-26T00:56:23.939Z,101275.75
2023-03-26T00:58:50.961Z,101270.91
2023-03-26T01:01:28.757Z,101265.22
2023-03-26T01:04:08.354Z,101252.69
2023-03-26T01:06:39.266Z,101257.34
2023-03-26T01:09:20.216Z,101253.28
2023-03-26T01:11:48.969Z,101246.00
2023-03-26T01:14:23.731Z,101256.91
2023-03-26T01:16:58.229Z,101258.75
2023-03-26T01:19:29.795Z,101274.53
2023-03-26T01:21:59.168Z,101280.19
2023-03-26T01:24:26.624Z,101280.78
2023-03-26T01:27:18.714Z,101301.53
2023-03-26T01:29:54.262Z,101305.56
2023-03-26T01:32:33.422Z,101285.16
2023-03-26T01:35:29.400Z,101280.28
2023-03-26T01:38:10.918Z,101267.84
2023-03-26T01:40:51.537Z,101267.53
2023-03-26T01:43:26.830Z,101271.59
2023-03-26T01:45:54.624Z,101265.00
2023-03-26T01:48:31.329Z,101259.75
2023-03-26T01:50:58.961Z,101240.66
2023-03-26T01:53:27.161Z,101220.84
2023-03-26T01:56:06.168Z,101222.47
2023-03-26T01:58:58.712Z,101213.88
2023-03-26T02:02:09.193Z,101217.41
2023-03-26T02:05:15.958Z,101213.06
2023-03-26T02:07:56.274Z,101219.91
2023-03-26T02:10:23.464Z,101222.66
2023-03-26T02:12:51.297Z,101228.63
2023-03-26T02:15:19.066Z,101224.56
2023-03-26T02:17:47.133Z,101228.69
2023-03-26T02:20:15.813Z,101220.72
2023-03-26T02:22:46.175Z,101227.50
2023-03-26T02:25:20.313Z,101229.63
2023-03-26T02:27:52.156Z,101225.19
2023-03-26T02:30:27.214Z,101214.28
2023-03-26T02:33:00.383Z,101222.25
2023-03-26T02:35:35.541Z,101220.66
2023-03-26T02:38:03.501Z,101218.50
2023-03-26T02:40:30.822Z,101206.78
2023-03-26T02:42:58.889Z,101217.72
2023-03-26T02:45:28.160Z,101217.25
2023-03-26T02:48:15.472Z,101222.31
2023-03-26T02:50:43.328Z,101224.34
2023-03-26T02:53:31.614Z,101231.81
2023-03-26T02:56:34.192Z,101223.94
2023-03-26T02:59:33.932Z,101231.00
2023-03-26T03:02:40.024Z,101226.03
2023-03-26T03:05:38.223Z,101223.75
2023-03-26T03:08:14.512Z,101220.50
2023-03-26T03:11:03.172Z,101225.38
2023-03-26T03:13:38.490Z,101217.72
2023-03-26T03:16:06.065Z,101208.69
2023-03-26T03:18:33.658Z,101218.78
2023-03-26T03:21:03.151Z,101217.78
2023-03-26T03:23:31.979Z,101217.44
2023-03-26T03:26:21.902Z,101215.81
2023-03-26T03:28:56.591Z,101200.44
2023-03-26T03:31:25.887Z,101207.66
2023-03-26T03:33:57.343Z,101212.41
2023-03-26T03:36:28.080Z,101214.88
2023-03-26T03:39:17.954Z,101216.81
2023-03-26T03:41:45.403Z,101225.19
2023-03-26T03:44:15.159Z,101226.84
2023-03-26T03:46:42.796Z,101237.22
2023-03-26T03:49:10.179Z,101237.97
2023-03-26T03:51:38.201Z,101251.28
2023-03-26T03:54:14.576Z,101257.34
2023-03-26T03:56:49.233Z,101257.13
2023-03-26T03:59:25.356Z,101265.97
2023-03-26T04:01:52.852Z,101263.88
2023-03-26T04:04:27.908Z,101256.38
2023-03-26T04:07:04.495Z,101254.75
2023-03-26T04:09:51.589Z,101250.94
2023-03-26T04:12:21.313Z,101244.47
2023-03-26T04:14:57.781Z,101236.28
2023-03-26T04:17:26.017Z,101242.44
2023-03-26T04:19:55.802Z,101241.81
2023-03-26T04:22:34.807Z,101246.09
2023-03-26T04:25:05.431Z,101247.97
2023-03-26T04:27:41.850Z,101255.44
2023-03-26T04:30:20.784Z,101261.25
2023-03-26T04:33:04.328Z,101268.97
2023-03-26T04:35:34.851Z,101276.19
2023-03-26T04:38:06.623Z,101271.38
2023-03-26T04:40:39.294Z,101279.63
2023-03-26T04:43:31.419Z,101287.34
2023-03-26T04:46:27.919Z,101276.25
2023-03-26T04:49:15.732Z,101282.25
2023-03-26T04:51:44.976Z,101284.22
2023-03-26T04:54:43.414Z,101290.19
2023-03-26T04:57:25.627Z,101288.41
2023-03-26T04:59:58.800Z,101291.06
2023-03-26T05:02:26.788Z,101295.72
2023-03-26T05:04:57.354Z,101295.53
2023-03-26T05:07:28.640Z,101315.53
2023-03-26T05:09:57.748Z,101306.44
2023-03-26T05:12:37.614Z,101317.28
2023-03-26T05:15:18.108Z,101325.28
2023-03-26T05:17:59.620Z,101325.88
2023-03-26T05:20:36.145Z,101326.56
2023-03-26T05:23:07.575Z,101332.03
2023-03-26T05:25:41.364Z,101324.66
2023-03-26T05:28:24.410Z,101329.00
2023-03-26T05:30:58.197Z,101329.97
2023-03-26T05:33:27.803Z,101328.47
2023-03-26T05:36:09.461Z,101346.56
2023-03-26T05:38:37.258Z,101329.47
2023-03-26T05:41:08.751Z,101336.88
2023-03-26T05:43:38.107Z,101327.88
2023-03-26T05:46:25.102Z,101337.69
2023-03-26T05:48:52.723Z,101334.91
2023-03-26T05:51:21.085Z,101341.22
2023-03-26T05:53:57.689Z,101348.13
2023-03-26T05:56:48.094Z,101346.63
2023-03-26T05:59:33.583Z,101349.06
2023-03-26T06:02:18.770Z,101340.31
2023-03-26T06:05:10.285Z,101347.75
2023-03-26T06:07:53.527Z,101342.81
2023-03-26T06:10:20.934Z,101344.06
2023-03-26T06:12:49.779Z,101345.72
2023-03-26T06:15:19.708Z,101329.34
2023-03-26T06:17:49.424Z,101334.19
2023-03-26T06:20:48.820Z,101346.06
2023-03-26T06:23:25.519Z,101347.41
2023-03-26T06:26:05.936Z,101343.81
2023-03-26T06:28:51.942Z,101336.72
2023-03-26T06:31:34.012Z,101335.16
2023-03-26T06:34:22.319Z,101332.47
2023-03-26T06:36:52.705Z,101332.69
2023-03-26T06:39:21.849Z,101347.09
2023-03-26T06:42:21.282Z,101347.63
2023-03-26T06:45:27.372Z,101342.50
2023-03-26T06:48:17.398Z,101345.94
2023-03-26T06:50:58.025Z,101339.59
2023-03-26T06:53:45.066Z,101340.06
2023-03-26T06:56:38.240Z,101349.03
2023-03-26T06:59:26.712Z,101343.13
2023-03-26T07:02:12.431Z,101349.81
2023-03-26T07:05:06.139Z,101347.59
2023-03-26T07:07:51.993Z,101349.19
2023-03-26T07:10:37.488Z,101348.56
2023-03-26T07:13:13.642Z,101355.75
2023-03-26T07:15:50.006Z,101349.00
2023-03-26T07:18:30.546Z,101361.63
2023-03-26T07:20:58.909Z,101357.59
2023-03-26T07:23:30.616Z,101357.00
2023-03-26T07:26:39.712Z,101358.34
2023-03-26T07:29:22.111Z,101357.63
2023-03-26T07:32:43.548Z,101362.75
2023-03-26T07:35:55.757Z,101357.78
2023-03-26T07:38:51.925Z,101358.63
2023-03-26T07:41:57.607Z,101354.44
2023-03-26T07:44:59.739Z,101360.66
2023-03-26T07:47:53.972Z,101364.75
2023-03-26T07:50:43.962Z,101364.56
2023-03-26T07:53:23.442Z,101362.22
2023-03-26T07:56:21.438Z,101364.09
2023-03-26T07:59:31.274Z,101373.25
2023-03-26T08:03:01.395Z,101364.06
2023-03-26T08:06:36.323Z,101358.75
2023-03-26T08:09:42.138Z,101361.56
2023-03-26T08:12:52.752Z,101366.41
2023-03-26T08:15:41.973Z,101364.94
2023-03-26T08:18:27.624Z,101356.88
2023-03-26T08:21:01.229Z,101358.44
2023-03-26T08:23:38.348Z,101361.03
2023-03-26T08:26:40.137Z,101359.16
2023-03-26T08:29:34.639Z,101344.69
2023-03-26T08:32:05.238Z,101358.72
2023-03-26T08:34:32.483Z,101355.56
2023-03-26T08:36:59.841Z,101351.28
2023-03-26T08:39:26.957Z,101346.00
2023-03-26T08:42:16.033Z,101345.75
2023-03-26T08:45:01.927Z,101346.66
2023-03-26T08:47:52.021Z,101345.56
2023-03-26T08:50:53.508Z,101337.66
2023-03-26T08:53:23.721Z,101333.81
2023-03-26T08:56:23.287Z,101325.97
2023-03-26T08:59:16.012Z,101326.44
2023-03-26T09:01:58.316Z,101329.31
2023-03-26T09:04:28.090Z,101330.25
2023-03-26T09:07:15.579Z,101330.47
2023-03-26T09:10:19.848Z,101337.25
2023-03-26T09:13:14.334Z,101332.69
2023-03-26T09:15:59.843Z,101336.59
2023-03-26T09:18:48.513Z,101330.41
2023-03-26T09:21:38.090Z,101328.47
2023-03-26T09:24:25.643Z,101328.16
2023-03-26T09:26:56.135Z,101325.75
2023-03-26T09:29:54.036Z,101320.56
2023-03-26T09:33:03.556Z,101317.00
2023-03-26T09:35:55.670Z,101323.25
2023-03-26T09:38:45.983Z,101311.84
2023-03-26T09:41:18.897Z,101310.44
2023-03-26T09:44:04.323Z,101304.44
2023-03-26T09:46:46.662Z,101297.56
2023-03-26T09:49:32.343Z,101294.81
2023-03-26T09:52:50.476Z,101293.97
2023-03-26T09:55:26.301Z,101298.28
2023-03-26T09:58:20.127Z,101286.28
2023-03-26T10:01:04.289Z,101281.72
2023-03-26T10:03:49.369Z,101287.94
2023-03-26T10:06:40.239Z,101293.69
2023-03-26T10:09:19.594Z,101285.50
2023-03-26T10:12:18.689Z,101280.00
2023-03-26T10:15:11.333Z,101286.00
2023-03-26T10:17:57.411Z,101282.31
2023-03-26T10:20:32.414Z,101274.84
2023-03-26T10:23:45.334Z,101275.84
2023-03-26T10:26:24.686Z,101278.03
2023-03-26T10:29:00.485Z,101267.25
2023-03-26T10:31:27.608Z,101265.53
2023-03-26T10:33:59.644Z,101270.34
2023-03-26T10:37:10.096Z,101261.84
2023-03-26T10:40:06.047Z,101273.69
2023-03-26T10:42:50.871Z,101270.13
2023-03-26T10:45:49.968Z,101269.09
2023-03-26T10:48:25.947Z,101254.97
2023-03-26T10:51:30.112Z,101258.75
2023-03-26T10:54:00.955Z,101258.03
2023-03-26T10:56:36.376Z,101259.31
2023-03-26T10:59:12.486Z,101249.34
2023-03-26T11:02:03.590Z,101250.66
2023-03-26T11:05:05.060Z,101248.75
2023-03-26T11:07:52.025Z,101239.78
2023-03-26T11:10:32.341Z,101252.19
2023-03-26T11:13:44.187Z,101243.09
2023-03-26T11:16:47.400Z,101232.00
2023-03-26T11:19:56.498Z,101231.16
2023-03-26T11:22:38.717Z,101233.09
2023-03-26T11:25:42.270Z,101235.81
2023-03-26T11:28:25.933Z,101237.44
2023-03-26T11:31:08.155Z,101222.97
2023-03-26T11:33:47.496Z,101212.63
2023-03-26T11:36:23.918Z,101215.13
2023-03-26T11:38:54.180Z,101220.44
2023-03-26T11:41:31.334Z,101205.75
2023-03-26T11:44:27.351Z,101205.28
2023-03-26T11:47:01.438Z,101198.41
2023-03-26T11:49:29.688Z,101196.78
2023-03-26T11:51:56.894Z,101179.38
2023-03-26T11:54:23.912Z,101190.69
2023-03-26T11:57:05.914Z,101185.91
2023-03-26T11:59:56.976Z,101185.59
2023-03-26T12:02:34.446Z,101191.53
2023-03-26T12:05:26.551Z,101191.53
2023-03-26T12:07:59.732Z,101184.50
2023-03-26T12:10:29.222Z,101174.31
2023-03-26T12:13:01.589Z,101178.03
2023-03-26T12:15:31.201Z,101177.78
2023-03-26T12:17:59.530Z,101177.41
2023-03-26T12:20:26.558Z,101167.47
2023-03-26T12:22:59.546Z,101169.78
2023-03-26T12:25:39.231Z,101160.25
2023-03-26T12:28:16.449Z,101160.88
2023-03-26T12:31:01.060Z,101160.72
2023-03-26T12:33:34.603Z,101163.00
2023-03-26T12:36:26.806Z,101172.50
2023-03-26T12:39:15.958Z,101164.38
2023-03-26T12:42:52.600Z,101155.19
2023-03-26T12:44:56.340Z,101155.47
2023-03-26T12:47:57.495Z,101160.28
2023-03-26T12:50:18.060Z,101145.88
2023-03-26T12:53:37.784Z,101148.84
2023-03-26T12:56:11.896Z,101135.22
2023-03-26T12:58:51.266Z,101142.53
2023-03-26T13:01:55.995Z,101137.13
2023-03-26T13:04:38.039Z,101128.22
2023-03-26T13:07:22.341Z,101130.28
2023-03-26T13:09:58.209Z,101112.91
2023-03-26T13:12:54.618Z,101117.44
2023-03-26T13:15:35.711Z,101111.91
2023-03-26T13:18:12.201Z,101110.28
2023-03-26T13:20:58.725Z,101108.00
2023-03-26T13:23:49.495Z,101107.94
2023-03-26T13:26:22.742Z,101113.41
2023-03-26T13:28:58.204Z,101111.00
2023-03-26T13:31:36.259Z,101093.13
2023-03-26T13:34:09.495Z,101095.53
2023-03-26T13:36:36.417Z,101104.16
2023-03-26T13:39:21.684Z,101109.19
2023-03-26T13:42:22.062Z,101100.19
2023-03-26T13:45:15.746Z,101092.53
2023-03-26T13:47:49.716Z,101087.22
2023-03-26T13:50:27.950Z,101073.25
2023-03-26T13:53:24.370Z,101068.78
2023-03-26T13:56:00.471Z,101070.16
2023-03-26T13:59:00.585Z,101068.13
2023-03-26T14:01:35.426Z,101068.59
2023-03-26T14:04:17.994Z,101069.28
2023-03-26T14:06:48.096Z,101067.41
2023-03-26T14:09:32.185Z,101055.19
2023-03-26T14:12:22.527Z,101058.28
2023-03-26T14:14:59.402Z,101061.97
2023-03-26T14:17:31.469Z,101053.16
2023-03-26T14:20:01.522Z,101052.47
2023-03-26T14:22:28.601Z,101052.00
2023-03-26T14:25:19.928Z,101049.84
2023-03-26T14:28:11.163Z,101036.69
2023-03-26T14:30:44.375Z,101050.28
2023-03-26T14:33:28.160Z,101037.53
2023-03-26T14:36:07.266Z,101029.16
2023-03-26T14:38:56.808Z,101027.63
2023-03-26T14:41:39.026Z,101032.34
2023-03-26T14:44:24.638Z,101041.72
2023-03-26T14:47:09.820Z,101035.41
2023-03-26T14:50:08.431Z,101028.22
2023-03-26T14:52:51.998Z,101024.00
2023-03-26T14:55:37.658Z,101032.97
2023-03-26T14:58:34.401Z,101037.88
2023-03-26T15:01:17.456Z,101041.44
2023-03-26T15:04:16.122Z,101041.78
2023-03-26T15:07:01.486Z,101026.03
2023-03-26T15:09:49.255Z,101026.09
2023-03-26T15:12:27.684Z,101039.03
2023-03-26T15:15:16.672Z,101040.13
2023-03-26T15:17:59.146Z,101023.81
2023-03-26T15:21:02.124Z,101029.00
2023-03-26T15:23:38.192Z,101029.31
2023-03-26T15:26:42.770Z,101020.63
2023-03-26T15:29:45.941Z,101013.22
2023-03-26T15:32:57.329Z,101006.41
2023-03-26T15:35:49.304Z,101014.28
2023-03-26T15:38:42.708Z,101013.81
2023-03-26T15:41:47.176Z,101006.25
2023-03-26T15:44:26.654Z,100996.88
2023-03-26T15:47:26.455Z,101005.56
2023-03-26T15:50:30.782Z,100992.44
2023-03-26T15:53:21.475Z,100993.84
2023-03-26T15:56:07.559Z,100997.00
2023-03-26T15:59:23.872Z,101001.47
2023-03-26T16:02:08.035Z,100997.19
2023-03-26T16:04:51.950Z,100991.03
2023-03-26T16:07:39.236Z,100986.50
2023-03-26T16:10:54.171Z,100999.69
2023-03-26T16:13:35.110Z,100989.56
2023-03-26T16:16:07.047Z,100987.00
2023-03-26T16:18:45.228Z,100984.00
2023-03-26T16:21:32.651Z,100983.81
2023-03-26T16:24:03.013Z,100987.69
2023-03-26T16:26:53.439Z,100989.03
2023-03-26T16:29:22.594Z,100984.34
2023-03-26T16:32:15.200Z,100991.50
2023-03-26T16:34:51.352Z,100985.41
2023-03-26T16:37:36.832Z,100983.66
2023-03-26T16:40:22.676Z,100985.47
2023-03-26T16:43:37.876Z,100979.53
2023-03-26T16:46:20.077Z,100989.00
2023-03-26T16:49:27.857Z,100988.22
2023-03-26T16:51:58.066Z,100991.31
2023-03-26T16:54:40.185Z,100988.56
2023-03-26T16:57:13.327Z,100982.25
2023-03-26T17:00:04.598Z,100986.47
2023-03-26T17:02:46.560Z,100984.84
2023-03-26T17:05:24.815Z,100984.72
2023-03-26T17:08:01.855Z,100982.16
2023-03-26T17:10:34.924Z,100988.31
2023-03-26T17:13:43.595Z,100983.50
2023-03-26T17:16:19.666Z,100978.66
2023-03-26T17:19:05.657Z,100986.09
2023-03-26T17:21:47.905Z,100981.13
2023-03-26T17:24:40.881Z,100979.84
2023-03-26T17:27:34.401Z,100978.25
2023-03-26T17:30:23.679Z,100977.09
2023-03-26T17:32:59.003Z,100973.22
2023-03-26T17:35:47.157Z,100963.59
2023-03-26T17:38:17.592Z,100962.91
2023-03-26T17:40:58.751Z,100966.34
2023-03-26T17:43:47.383Z,100956.81
2023-03-26T17:46:33.368Z,100958.09
2023-03-26T17:49:16.452Z,100955.81
2023-03-26T17:52:15.199Z,100955.16
2023-03-26T17:54:46.763Z,100960.97
2023-03-26T17:57:40.301Z,100954.66
2023-03-26T18:00:16.555Z,100958.91
2023-03-26T18:02:54.191Z,100947.78
2023-03-26T18:05:24.156Z,100955.00
2023-03-26T18:08:15.831Z,100954.22
2023-03-26T18:10:46.363Z,100954.34
2023-03-26T18:13:15.454Z,100957.09
2023-03-26T18:15:45.538Z,100959.03
2023-03-26T18:18:20.062Z,100962.44
2023-03-26T18:20:49.867Z,100949.38
2023-03-26T18:23:39.469Z,100954.06
2023-03-26T18:26:21.260Z,100957.94
2023-03-26T18:28:54.112Z,100961.03
2023-03-26T18:31:26.420Z,100961.81
2023-03-26T18:34:03.360Z,100962.31
2023-03-26T18:36:31.677Z,100962.97
2023-03-26T18:38:59.872Z,100960.50
2023-03-26T18:41:32.490Z,100969.88
2023-03-26T18:44:05.504Z,100970.22
2023-03-26T18:46:34.174Z,100967.66
2023-03-26T18:49:03.103Z,100958.75
2023-03-26T18:51:35.031Z,100959.56
2023-03-26T18:54:10.436Z,100962.63
2023-03-26T18:56:43.709Z,100959.06
2023-03-26T18:59:20.243Z,100958.59
2023-03-26T19:01:49.037Z,100947.78
2023-03-26T19:04:18.123Z,100953.28
2023-03-26T19:06:46.337Z,100948.09
2023-03-26T19:09:30.363Z,100953.09
2023-03-26T19:12:07.071Z,100949.03
2023-03-26T19:15:01.545Z,100946.44
2023-03-26T19:17:34.744Z,100942.56
2023-03-26T19:20:02.177Z,100949.16
2023-03-26T19:22:31.744Z,100944.38
2023-03-26T19:25:02.682Z,100944.22
2023-03-26T19:27:30.501Z,100941.47
2023-03-26T19:29:58.384Z,100938.88
2023-03-26T19:32:34.799Z,100938.81
2023-03-26T19:35:04.696Z,100928.91
2023-03-26T19:37:32.656Z,100927.25
2023-03-26T19:40:14.328Z,100934.63
2023-03-26T19:42:44.825Z,100930.41
2023-03-26T19:45:20.459Z,100932.00
2023-03-26T19:50:42.763Z,100922.38
2023-03-26T19:51:18.623Z,100932.00
2023-03-26T19:53:17.956Z,100916.72
2023-03-26T19:56:13.462Z,100919.69
2023-03-26T19:58:41.853Z,100918.41
2023-03-26T20:01:36.575Z,100921.19
2023-03-26T20:04:06.962Z,100919.16
2023-03-26T20:06:43.142Z,100916.72
2023-03-26T20:09:13.004Z,100915.13
2023-03-26T20:11:40.895Z,100915.31
2023-03-26T20:14:14.378Z,100913.41
2023-03-26T20:16:43.876Z,100902.81
2023-03-26T20:19:14.283Z,100897.19
2023-03-26T20:21:43.129Z,100896.34
2023-03-26T20:24:19.892Z,100889.91
2023-03-26T20:26:47.551Z,100874.91
2023-03-26T20:29:15.415Z,100875.88
2023-03-26T20:31:43.040Z,100865.72
2023-03-26T20:34:20.180Z,100866.50
2023-03-26T20:36:47.723Z,100864.91
2023-03-26T20:39:24.251Z,100866.16
2023-03-26T20:41:53.160Z,100870.41
2023-03-26T20:44:22.160Z,100856.69
2023-03-26T20:46:50.635Z,100851.50
2023-03-26T20:49:18.611Z,100848.97
2023-03-26T20:51:46.931Z,100853.19
2023-03-26T20:54:17.837Z,100844.94
2023-03-26T20:56:45.891Z,100851.75
2023-03-26T20:59:19.240Z,100850.47
2023-03-26T21:01:50.135Z,100850.69
2023-03-26T21:04:18.078Z,100843.72
2023-03-26T21:06:45.959Z,100848.75
2023-03-26T21:09:18.322Z,100845.38
2023-03-26T21:12:08.342Z,100837.31
2023-03-26T21:14:44.421Z,100831.69
2023-03-26T21:17:18.971Z,100819.78
2023-03-26T21:19:47.358Z,100819.78
2023-03-26T21:22:46.413Z,100824.81
2023-03-26T21:25:38.695Z,100808.81
2023-03-26T21:28:46.823Z,100817.03
2023-03-26T21:31:18.754Z,100826.41
2023-03-26T21:33:47.972Z,100815.44
2023-03-26T21:36:18.189Z,100813.38
2023-03-26T21:38:46.168Z,100801.47
2023-03-26T21:41:29.699Z,100802.13
2023-03-26T21:43:56.947Z,100799.69
2023-03-26T21:46:24.534Z,100796.94
2023-03-26T21:48:52.086Z,100805.66
2023-03-26T21:51:19.569Z,100798.72
2023-03-26T21:53:46.997Z,100796.94
2023-03-26T21:56:29.046Z,100789.88
2023-03-26T21:59:18.707Z,100795.88
2023-03-26T22:02:16.762Z,100792.63
2023-03-26T22:04:55.092Z,100786.22
2023-03-26T22:07:49.528Z,100786.56
2023-03-26T22:10:16.773Z,100780.94
2023-03-26T22:12:43.790Z,100776.56
2023-03-26T22:15:14.044Z,100782.53
2023-03-26T22:17:42.287Z,100764.00
2023-03-26T22:20:13.599Z,100772.88
2023-03-26T22:22:48.942Z,100767.56
2023-03-26T22:25:17.947Z,100776.13
2023-03-26T22:27:46.596Z,100771.00
2023-03-26T22:30:14.501Z,100764.22
2023-03-26T22:32:43.429Z,100767.78
2023-03-26T22:35:10.638Z,100763.22
2023-03-26T22:37:38.001Z,100775.66
2023-03-26T22:40:09.234Z,100766.47
2023-03-26T22:42:36.702Z,100774.41
2023-03-26T22:45:04.527Z,100767.97
2023-03-26T22:47:33.935Z,100758.31
2023-03-26T22:50:02.057Z,100762.66
2023-03-26T22:52:30.521Z,100766.06
2023-03-26T22:54:59.824Z,100758.66
2023-03-26T22:57:27.609Z,100760.47
2023-03-26T22:59:54.670Z,100757.22
2023-03-26T23:02:22.217Z,100759.50
2023-03-26T23:04:49.418Z,100758.38
2023-03-26T23:07:16.683Z,100764.97
2023-03-26T23:09:43.745Z,100753.06
2023-03-26T23:12:10.989Z,100749.38
2023-03-26T23:14:38.093Z,100752.94
2023-03-26T23:17:05.368Z,100752.28
2023-03-26T23:19:34.208Z,100744.03
2023-03-26T23:22:01.437Z,100738.19
2023-03-26T23:24:30.250Z,100736.34
2023-03-26T23:26:57.390Z,100737.63
2023-03-26T23:29:25.267Z,100727.44
2023-03-26T23:31:53.092Z,100738.53
2023-03-26T23:34:21.112Z,100724.50
2023-03-26T23:36:48.243Z,100726.44
2023-03-26T23:39:16.125Z,100722.91
2023-03-26T23:41:44.017Z,100731.78
2023-03-26T23:44:14.547Z,100731.63
2023-03-26T23:46:43.023Z,100733.28
2023-03-26T23:49:10.473Z,100727.94
2023-03-26T23:51:37.697Z,100730.22
2023-03-26T23:54:05.394Z,100719.09
2023-03-26T23:56:32.752Z,100712.19
2023-03-26T23:59:00.757Z,100696.13
